createdAt,value
2023-02-27T00:09:36.507Z,101678.22
2023-02-27T00:19:38.909Z,101683.00
2023-02-27T00:29:41.080Z,101670.69
2023-02-27T00:39:43.310Z,101662.38
2023-02-27T00:49:45.902Z,101671.91
2023-02-27T00:59:48.652Z,101675.38
2023-02-27T01:09:50.980Z,101672.19
2023-02-27T01:19:53.288Z,101663.44
2023-02-27T01:29:57.833Z,101664.28
2023-02-27T01:39:59.984Z,101664.28
2023-02-27T01:50:02.319Z,101666.66
2023-02-27T02:00:06.715Z,101658.34
2023-02-27T02:10:16.386Z,101666.84
2023-02-27T02:20:56.049Z,101661.06
2023-02-27T02:31:22.853Z,101662.25
2023-02-27T02:41:50.833Z,101670.66
2023-02-27T02:52:14.453Z,101678.09
2023-02-27T03:02:21.386Z,101687.44
2023-02-27T03:12:25.014Z,101676.19
2023-02-27T03:22:32.711Z,101685.56
2023-02-27T03:32:42.567Z,101685.44
2023-02-27T03:42:55.117Z,101674.81
2023-02-27T03:53:11.648Z,101683.41
2023-02-27T04:03:14.175Z,101686.00
2023-02-27T04:13:54.372Z,101696.78
2023-02-27T04:24:16.143Z,101706.50
2023-02-27T04:34:18.225Z,101712.53
2023-02-27T04:44:21.739Z,101718.19
2023-02-27T04:55:09.630Z,101732.16
2023-02-27T05:05:16.457Z,101744.41
2023-02-27T05:15:40.429Z,101741.22
2023-02-27T05:25:52.464Z,101755.41
2023-02-27T05:36:43.052Z,101753.66
2023-02-27T05:46:50.066Z,101751.88
2023-02-27T05:56:54.299Z,101762.63
2023-02-27T06:06:57.199Z,101782.25
2023-02-27T06:17:00.511Z,101800.47
2023-02-27T06:27:02.898Z,101816.75
2023-02-27T06:37:04.974Z,101816.75
2023-02-27T06:47:07.278Z,101813.34
2023-02-27T06:57:09.377Z,101829.91
2023-02-27T07:07:35.189Z,101845.19
2023-02-27T07:17:33.670Z,101848.31
2023-02-27T07:27:35.864Z,101866.44
2023-02-27T07:37:38.244Z,101866.38
2023-02-27T07:47:40.623Z,101870.69
2023-02-27T07:57:44.661Z,101868.75
2023-02-27T08:07:46.841Z,101868.44
2023-02-27T08:17:48.984Z,101877.06
2023-02-27T08:27:52.124Z,101868.09
2023-02-27T08:37:54.214Z,101874.16
2023-02-27T08:47:56.586Z,101882.44
2023-02-27T08:57:58.685Z,101885.78
2023-02-27T09:08:04.617Z,101891.38
2023-02-27T09:18:07.058Z,101880.94
2023-02-27T09:28:09.212Z,101868.72
2023-02-27T09:38:12.386Z,101876.06
2023-02-27T09:48:36.683Z,101867.25
2023-02-27T09:58:47.791Z,101864.06
2023-02-27T10:09:11.653Z,101865.31
2023-02-27T10:19:17.338Z,101857.53
2023-02-27T10:29:36.654Z,101864.69
2023-02-27T10:39:52.608Z,101871.84
2023-02-27T10:49:56.706Z,101865.16
2023-02-27T11:00:09.779Z,101857.00
2023-02-27T11:10:15.265Z,101848.91
2023-02-27T11:20:29.807Z,101827.38
2023-02-27T11:30:32.156Z,101827.59
2023-02-27T11:40:37.663Z,101811.28
2023-02-27T11:50:48.694Z,101812.22
2023-02-27T12:00:54.954Z,101809.97
2023-02-27T12:11:13.701Z,101804.69
2023-02-27T12:21:21.950Z,101802.41
2023-02-27T12:31:36.304Z,101811.63
2023-02-27T12:41:50.516Z,101798.28
2023-02-27T12:52:35.215Z,101786.00
2023-02-27T13:02:58.905Z,101783.28
2023-02-27T13:13:08.800Z,101783.44
2023-02-27T13:23:20.719Z,101774.13
2023-02-27T13:33:34.592Z,101771.25
2023-02-27T13:43:51.069Z,101773.47
2023-02-27T13:54:19.730Z,101785.28
2023-02-27T14:04:26.364Z,101770.13
2023-02-27T14:14:41.355Z,101762.19
2023-02-27T14:25:33.759Z,101756.22
2023-02-27T14:35:36.076Z,101754.19
2023-02-27T14:45:38.467Z,101751.53
2023-02-27T14:55:41.363Z,101759.97
2023-02-27T15:05:43.716Z,101751.19
2023-02-27T15:15:46.144Z,101746.53
2023-02-27T15:25:49.458Z,101743.00
2023-02-27T15:35:52.970Z,101756.28
2023-02-27T15:45:58.142Z,101762.16
2023-02-27T15:56:09.673Z,101755.97
2023-02-27T16:06:20.643Z,101767.09
2023-02-27T16:16:23.021Z,101770.75
2023-02-27T16:26:36.646Z,101775.84
2023-02-27T16:36:41.102Z,101778.03
2023-02-27T16:46:44.229Z,101785.63
2023-02-27T16:56:47.379Z,101797.28
2023-02-27T17:06:49.759Z,101797.75
2023-02-27T17:16:52.072Z,101808.81
2023-02-27T17:26:54.528Z,101807.31
2023-02-27T17:36:56.737Z,101810.31
2023-02-27T17:46:58.923Z,101825.13
2023-02-27T17:57:01.187Z,101828.84
2023-02-27T18:07:03.780Z,101831.44
2023-02-27T18:17:11.722Z,101848.06
2023-02-27T18:27:14.084Z,101848.38
2023-02-27T18:37:16.355Z,101857.78
2023-02-27T18:47:22.094Z,101860.84
2023-02-27T18:57:24.956Z,101853.44
2023-02-27T19:07:29.501Z,101861.78
2023-02-27T19:17:33.691Z,101859.75
2023-02-27T19:27:36.018Z,101861.25
2023-02-27T19:37:39.716Z,101856.97
2023-02-27T19:47:42.012Z,101861.13
2023-02-27T19:57:44.819Z,101857.09
2023-02-27T20:07:49.349Z,101871.75
2023-02-27T20:17:51.483Z,101878.13
2023-02-27T20:27:54.347Z,101876.47
2023-02-27T20:37:56.731Z,101876.44
2023-02-27T20:47:58.824Z,101864.47
2023-02-27T20:58:01.188Z,101864.47
2023-02-27T21:08:03.566Z,101875.72
2023-02-27T21:18:05.711Z,101875.72
2023-02-27T21:28:08.358Z,101867.53
2023-02-27T21:38:10.470Z,101887.44
2023-02-27T21:48:12.866Z,101893.91
2023-02-27T21:58:15.141Z,101890.66
2023-02-27T22:08:17.263Z,101891.13
2023-02-27T22:18:20.262Z,101893.75
2023-02-27T22:28:23.185Z,101906.13
2023-02-27T22:38:25.349Z,101906.50
2023-02-27T22:48:27.904Z,101906.72
2023-02-27T22:58:31.254Z,101905.56
2023-02-27T23:08:33.508Z,101920.59
2023-02-27T23:18:35.805Z,101929.06
2023-02-27T23:28:38.341Z,101924.44
2023-02-27T23:38:42.042Z,101932.66
2023-02-27T23:48:44.267Z,101932.31
2023-02-27T23:58:46.628Z,101942.16
